KMOBKNPA

Guest
Details From KMOB - Mobile Rgnl
To KNPA - Pensacola Nas
Flight Number -
Tags Generated
Created
Modified
Stats Distance 52 nm / 96 km
Max Altitude 0 ft / 0 m
Waypoints 2
Social Downloads 0
Likes 0
Share VATSIM

Download

Looking for another format? Having issues loading an existing format? Contact us
Advertisement - Login to hide

Notes

Generated

Route

KMOB KNPA

ID Type Via Altitude Latitude Longitude Leg Dist Tot Dist Heading (true) Name
O KMOB APT - 0 ft / 0 m 30.69456˚ -88.23651˚ - 0 nm - Mobile Rgnl
O KNPA APT - 0 ft / 0 m 30.34202˚ -87.32157˚ 51 nm 51 nm 114° / 114° -

Altitude Profile

Advertisement - Login to hide

KMOB

Details ICAO KMOB (MOB)
Name Mobile Rgnl
Region United States
Timezone America/Chicago (UTC-6.0)
Stats Elevation 219 ft / 67 m (AMSL)
Location 30.690682° -88.241293°
Runways 2
Magnetic Variation 2.135° W

METAR

KMOB 141956Z 21006KT 10SM FEW150 BKN220 17/03 A2997 RMK AO2 SLP147 T01720028 $

Decode

TAF

KMOB 141722Z 1418/1518 26006KT P6SM FEW060 FEW150 FM150000 VRB02KT P6SM FEW250 FM151200 35006KT P6SM BKN070

Decode

Departure Runways

ID Width Length Bearing (true) Bearing (mag) Surface Threshold Offset Overrun Length
14 150 ft / 46 m 8,534 ft / 2,601 m 144.33° 146.46° Asphalt 0 ft / 0 m 0 ft / 0 m
18 150 ft / 46 m 4,380 ft / 1,335 m 179.98° 182.11° Asphalt 0 ft / 0 m 0 ft / 0 m
32 150 ft / 46 m 8,534 ft / 2,601 m 324.34° 326.47° Asphalt 0 ft / 0 m 1,007 ft / 307 m
36 150 ft / 46 m 4,380 ft / 1,335 m 359.98° 2.11° Asphalt 0 ft / 0 m 599 ft / 183 m

KNPA

Details ICAO KNPA (NPA)
Name Pensacola NAS
Region United States
Timezone America/Chicago (UTC-6.0)
Stats Elevation 28 ft / 9 m (AMSL)
Location 30.353219° -87.318055°
Runways 3
Magnetic Variation 2.718° W

METAR

KNPA 141956Z 00000KT 10SM BKN150 BKN250 17/00 A2996 RMK AO2 SLP148 T01720000 $

Decode

TAF

TAF KNPA 1415/1515 27005KT 9999 BKN180 BKN250 QNH2996INS FM141800 24008KT 9999 SCT150 BKN250 QNH2992INS FM150200 VRB04KT 9999 SCT120 BKN250 QNH2996INS FM150900 34009KT SCT025 BKN100 BKN250 QNH3004INS T18/1419Z T08/1511Z FN20053

Decode

Destination Runways

ID Width Length Bearing (true) Bearing (mag) Surface Threshold Offset Overrun Length
01 200 ft / 61 m 7,160 ft / 2,182 m 6.20° 8.92° Asphalt 0 ft / 0 m 1,000 ft / 305 m
07L 200 ft / 61 m 7,993 ft / 2,436 m 68.23° 70.95° Asphalt 0 ft / 0 m 1,000 ft / 305 m
07R 200 ft / 61 m 7,993 ft / 2,436 m 68.22° 70.94° Asphalt 0 ft / 0 m 1,000 ft / 305 m
19 200 ft / 61 m 7,160 ft / 2,182 m 186.20° 188.92° Asphalt 0 ft / 0 m 1,000 ft / 305 m
25L 200 ft / 61 m 7,993 ft / 2,436 m 248.23° 250.95° Asphalt 0 ft / 0 m 1,000 ft / 305 m
25R 200 ft / 61 m 7,993 ft / 2,436 m 248.24° 250.96° Asphalt 0 ft / 0 m 1,000 ft / 305 m

Approach Navaids

Runway Type Ident Frequency Range Bearing (true) Bearing (mag) Slope Elevation
07L Localiser INPA 109.30 MHz 18 nm / 33 km 68.09° 70.81° - 16 ft / 5 m (AMSL)
07L Glidescope INPA 109.30 MHz 10 nm / 19 km 68.24° 70.95° 3.00° 21 ft / 6 m (AMSL)

Popular Alternatives